createdAt,value
2023-03-17T00:01:18.165Z,100269.91
2023-03-17T00:03:46.469Z,100286.19
2023-03-17T00:06:28.598Z,100290.41
2023-03-17T00:08:56.285Z,100281.78
2023-03-17T00:11:22.823Z,100275.66
2023-03-17T00:13:49.655Z,100265.44
2023-03-17T00:16:22.369Z,100300.50
2023-03-17T00:18:50.952Z,100263.19
2023-03-17T00:21:24.492Z,100264.53
2023-03-17T00:23:54.827Z,100307.34
2023-03-17T00:26:22.490Z,100276.44
2023-03-17T00:28:50.728Z,100284.97
2023-03-17T00:31:20.841Z,100293.34
2023-03-17T00:33:49.801Z,100286.72
2023-03-17T00:36:20.362Z,100290.19
2023-03-17T00:38:47.186Z,100267.91
2023-03-17T00:41:13.830Z,100278.44
2023-03-17T00:43:40.957Z,100298.09
2023-03-17T00:46:38.181Z,100308.13
2023-03-17T00:49:19.048Z,100316.09
2023-03-17T00:51:46.688Z,100284.34
2023-03-17T00:54:14.368Z,100292.06
2023-03-17T00:56:42.295Z,100322.88
2023-03-17T00:59:30.582Z,100326.41
2023-03-17T01:01:57.376Z,100315.63
2023-03-17T01:04:24.224Z,100251.56
2023-03-17T01:06:51.282Z,100302.84
2023-03-17T01:09:19.311Z,100324.94
2023-03-17T01:11:47.125Z,100323.25
2023-03-17T01:14:13.676Z,100321.63
2023-03-17T01:16:40.757Z,100291.09
2023-03-17T01:19:07.761Z,100310.63
2023-03-17T01:21:34.811Z,100310.75
2023-03-17T01:24:01.590Z,100263.06
2023-03-17T01:26:28.641Z,100309.34
2023-03-17T01:28:55.319Z,100294.97
2023-03-17T01:31:23.445Z,100306.31
2023-03-17T01:33:51.308Z,100320.09
2023-03-17T01:36:18.237Z,100285.94
2023-03-17T01:38:45.741Z,100312.44
2023-03-17T01:41:12.648Z,100298.16
2023-03-17T01:43:39.295Z,100311.06
2023-03-17T01:46:14.800Z,100316.16
2023-03-17T01:49:05.850Z,100322.47
2023-03-17T01:51:38.983Z,100323.41
2023-03-17T01:54:11.706Z,100299.84
2023-03-17T01:56:42.104Z,100304.91
2023-03-17T01:59:11.667Z,100293.72
2023-03-17T02:01:42.222Z,100285.09
2023-03-17T02:04:10.728Z,100307.31
2023-03-17T02:06:47.465Z,100310.56
2023-03-17T02:09:21.812Z,100258.44
2023-03-17T02:11:49.107Z,100299.47
2023-03-17T02:14:15.766Z,100255.75
2023-03-17T02:16:45.117Z,100263.97
2023-03-17T02:19:12.677Z,100291.31
2023-03-17T02:21:42.609Z,100290.38
2023-03-17T02:24:16.004Z,100231.63
2023-03-17T02:26:45.542Z,100263.97
2023-03-17T02:29:12.794Z,100268.22
2023-03-17T02:31:39.322Z,100232.34
2023-03-17T02:34:06.096Z,100229.88
2023-03-17T02:36:32.729Z,100251.91
2023-03-17T02:38:59.836Z,100280.06
2023-03-17T02:41:26.398Z,100268.94
2023-03-17T02:43:53.791Z,100272.91
2023-03-17T02:46:20.460Z,100257.69
2023-03-17T02:48:47.604Z,100257.56
2023-03-17T02:51:14.139Z,100266.19
2023-03-17T02:53:40.786Z,100268.81
2023-03-17T02:56:07.860Z,100267.09
2023-03-17T02:58:34.496Z,100246.50
2023-03-17T03:01:01.226Z,100262.47
2023-03-17T03:03:28.289Z,100269.16
2023-03-17T03:05:54.823Z,100246.78
2023-03-17T03:08:22.327Z,100266.38
2023-03-17T03:10:48.847Z,100263.72
2023-03-17T03:13:15.451Z,100261.16
2023-03-17T03:15:43.325Z,100249.88
2023-03-17T03:18:10.141Z,100253.19
2023-03-17T03:20:36.774Z,100256.56
2023-03-17T03:23:03.992Z,100218.91
2023-03-17T03:25:30.608Z,100218.75
2023-03-17T03:27:57.188Z,100239.09
2023-03-17T03:30:23.774Z,100256.22
2023-03-17T03:32:50.349Z,100259.66
2023-03-17T03:35:17.013Z,100204.38
2023-03-17T03:37:43.742Z,100250.44
2023-03-17T03:40:11.275Z,100260.56
2023-03-17T03:42:37.779Z,100232.59
2023-03-17T03:45:05.148Z,100246.25
2023-03-17T03:47:31.777Z,100215.47
2023-03-17T03:49:58.344Z,100238.53
2023-03-17T03:52:24.920Z,100253.81
2023-03-17T03:54:51.577Z,100254.53
2023-03-17T03:57:18.179Z,100220.38
2023-03-17T03:59:44.738Z,100220.25
2023-03-17T04:02:11.553Z,100208.09
2023-03-17T04:04:38.646Z,100218.44
2023-03-17T04:07:05.944Z,100235.59
2023-03-17T04:09:33.144Z,100249.31
2023-03-17T04:11:59.673Z,100247.59
2023-03-17T04:14:26.322Z,100256.06
2023-03-17T04:16:52.839Z,100239.69
2023-03-17T04:19:20.444Z,100249.22
2023-03-17T04:21:47.940Z,100213.44
2023-03-17T04:24:14.865Z,100226.44
2023-03-17T04:26:41.621Z,100236.81
2023-03-17T04:29:08.975Z,100236.13
2023-03-17T04:31:36.847Z,100219.22
2023-03-17T04:34:03.502Z,100242.19
2023-03-17T04:36:30.088Z,100208.97
2023-03-17T04:38:56.733Z,100242.19
2023-03-17T04:41:23.404Z,100212.41
2023-03-17T04:43:50.043Z,100224.44
2023-03-17T04:46:16.725Z,100233.09
2023-03-17T04:48:43.297Z,100224.69
2023-03-17T04:51:11.795Z,100229.91
2023-03-17T04:53:38.502Z,100256.38
2023-03-17T04:56:05.394Z,100248.13
2023-03-17T04:58:31.970Z,100257.56
2023-03-17T05:00:59.095Z,100250.78
2023-03-17T05:03:27.809Z,100245.00
2023-03-17T05:05:55.664Z,100268.03
2023-03-17T05:08:22.369Z,100235.53
2023-03-17T05:10:48.949Z,100262.16
2023-03-17T05:13:16.070Z,100250.22
2023-03-17T05:15:50.480Z,100278.59
2023-03-17T05:18:18.364Z,100262.41
2023-03-17T05:20:45.260Z,100283.69
2023-03-17T05:23:12.309Z,100267.56
2023-03-17T05:25:40.143Z,100283.63
2023-03-17T05:28:07.781Z,100239.25
2023-03-17T05:30:36.640Z,100245.84
2023-03-17T05:33:04.055Z,100287.06
2023-03-17T05:35:30.871Z,100252.03
2023-03-17T05:37:57.447Z,100279.16
2023-03-17T05:40:24.331Z,100263.97
2023-03-17T05:42:51.737Z,100272.31
2023-03-17T05:45:18.750Z,100259.50
2023-03-17T05:47:45.896Z,100264.34
2023-03-17T05:50:13.047Z,100269.50
2023-03-17T05:52:40.091Z,100236.44
2023-03-17T05:55:07.895Z,100279.84
2023-03-17T05:57:34.771Z,100295.38
2023-03-17T06:00:02.492Z,100288.34
2023-03-17T06:02:29.452Z,100270.41
2023-03-17T06:04:56.734Z,100267.81
2023-03-17T06:07:23.257Z,100284.81
2023-03-17T06:09:50.019Z,100259.19
2023-03-17T06:12:16.779Z,100255.53
2023-03-17T06:14:43.498Z,100230.91
2023-03-17T06:17:10.383Z,100281.34
2023-03-17T06:19:37.009Z,100247.41
2023-03-17T06:22:03.741Z,100284.81
2023-03-17T06:24:30.463Z,100247.13
2023-03-17T06:26:56.998Z,100221.50
2023-03-17T06:29:24.836Z,100214.53
2023-03-17T06:31:51.670Z,100262.38
2023-03-17T06:34:19.667Z,100230.13
2023-03-17T06:36:47.246Z,100276.13
2023-03-17T06:39:15.781Z,100267.00
2023-03-17T06:41:42.773Z,100234.50
2023-03-17T06:44:10.153Z,100225.94
2023-03-17T06:46:36.811Z,100279.59
2023-03-17T06:49:03.712Z,100258.97
2023-03-17T06:51:32.407Z,100247.03
2023-03-17T06:53:58.934Z,100253.97
2023-03-17T06:56:30.216Z,100242.19
2023-03-17T06:58:57.576Z,100241.91
2023-03-17T07:01:27.681Z,100242.75
2023-03-17T07:03:57.635Z,100234.03
2023-03-17T07:06:33.853Z,100222.09
2023-03-17T07:09:02.178Z,100236.69
2023-03-17T07:11:30.777Z,100223.06
2023-03-17T07:13:57.659Z,100205.13
2023-03-17T07:16:29.677Z,100233.31
2023-03-17T07:22:18.376Z,100200.13
2023-03-17T07:24:52.720Z,100291.22
2023-03-17T07:27:46.775Z,100260.53
2023-03-17T07:30:22.918Z,100265.59
2023-03-17T07:35:52.705Z,100260.31
2023-03-17T07:38:24.536Z,100191.31
2023-03-17T07:41:28.747Z,100225.19
2023-03-17T07:43:58.566Z,100223.50
2023-03-17T07:46:29.288Z,100295.88
2023-03-17T07:49:04.163Z,100272.53
2023-03-17T07:51:35.624Z,100205.50
2023-03-17T07:54:30.522Z,100295.88
2023-03-17T07:57:09.127Z,100241.06
2023-03-17T07:59:36.381Z,100246.78
2023-03-17T08:02:04.307Z,100284.28
2023-03-17T08:04:39.468Z,100277.69
2023-03-17T08:07:34.940Z,100294.63
2023-03-17T08:10:15.238Z,100301.44
2023-03-17T08:16:30.661Z,100272.81
2023-03-17T08:19:00.707Z,100313.81
2023-03-17T08:21:46.155Z,100295.28
2023-03-17T08:24:13.323Z,100283.03
2023-03-17T08:26:40.000Z,100254.63
2023-03-17T08:29:08.709Z,100267.38
2023-03-17T08:31:36.667Z,100309.63
2023-03-17T08:34:11.763Z,100313.78
2023-03-17T08:36:40.432Z,100282.81
2023-03-17T08:39:13.399Z,100300.56
2023-03-17T08:41:40.244Z,100244.44
2023-03-17T08:44:09.258Z,100293.94
2023-03-17T08:46:53.942Z,100290.28
2023-03-17T08:49:21.866Z,100245.06
2023-03-17T08:51:49.245Z,100295.19
2023-03-17T08:54:15.981Z,100300.41
2023-03-17T08:56:45.807Z,100302.22
2023-03-17T08:59:12.592Z,100314.94
2023-03-17T09:01:40.196Z,100305.72
2023-03-17T09:04:06.992Z,100336.41
2023-03-17T09:06:36.006Z,100279.28
2023-03-17T09:09:03.014Z,100299.94
2023-03-17T09:11:32.804Z,100264.31
2023-03-17T09:14:03.835Z,100249.03
2023-03-17T09:16:34.258Z,100282.25
2023-03-17T09:19:01.373Z,100282.94
2023-03-17T09:21:28.685Z,100336.63
2023-03-17T09:23:55.365Z,100295.78
2023-03-17T09:26:24.657Z,100312.16
2023-03-17T09:28:52.328Z,100304.25
2023-03-17T09:31:19.449Z,100324.84
2023-03-17T09:33:47.415Z,100334.09
2023-03-17T09:36:14.339Z,100338.19
2023-03-17T09:38:55.951Z,100270.81
2023-03-17T09:41:53.996Z,100336.19
2023-03-17T09:44:39.897Z,100342.13
2023-03-17T09:47:25.438Z,100342.88
2023-03-17T09:49:57.406Z,100322.88
2023-03-17T09:52:30.074Z,100327.97
2023-03-17T09:55:16.419Z,100329.38
2023-03-17T09:57:46.472Z,100268.81
2023-03-17T10:00:26.818Z,100290.09
2023-03-17T10:02:54.414Z,100289.13
2023-03-17T10:05:25.127Z,100267.00
2023-03-17T10:08:29.048Z,100339.19
2023-03-17T10:11:17.049Z,100336.41
2023-03-17T10:13:45.876Z,100345.91
2023-03-17T10:16:24.347Z,100298.38
2023-03-17T10:19:21.838Z,100291.75
2023-03-17T10:22:17.859Z,100298.38
2023-03-17T10:24:48.644Z,100352.13
2023-03-17T10:27:17.243Z,100307.06
2023-03-17T10:29:46.474Z,100349.66
2023-03-17T10:32:19.966Z,100279.94
2023-03-17T10:34:55.043Z,100265.63
2023-03-17T10:37:26.901Z,100346.50
2023-03-17T10:39:57.756Z,100356.03
2023-03-17T10:42:29.138Z,100321.13
2023-03-17T10:45:07.634Z,100313.44
2023-03-17T10:47:46.989Z,100362.84
2023-03-17T10:50:13.624Z,100327.06
2023-03-17T10:52:41.099Z,100311.50
2023-03-17T10:55:15.713Z,100374.88
2023-03-17T10:57:53.079Z,100321.28
2023-03-17T11:00:21.927Z,100315.38
2023-03-17T11:03:37.465Z,100361.50
2023-03-17T11:06:17.615Z,100333.56
2023-03-17T11:08:53.880Z,100301.66
2023-03-17T11:11:40.390Z,100337.19
2023-03-17T11:14:36.855Z,100239.38
2023-03-17T11:17:13.789Z,100306.13
2023-03-17T11:20:15.902Z,100318.81
2023-03-17T11:23:06.710Z,100338.25
2023-03-17T11:25:36.983Z,100325.44
2023-03-17T11:28:25.260Z,100342.97
2023-03-17T11:31:45.314Z,100344.53
2023-03-17T11:34:29.631Z,100327.81
2023-03-17T11:37:20.823Z,100355.66
2023-03-17T11:40:14.606Z,100343.34
2023-03-17T11:43:29.818Z,100318.91
2023-03-17T11:46:16.628Z,100306.97
2023-03-17T11:48:53.108Z,100365.13
2023-03-17T11:51:42.227Z,100368.66
2023-03-17T11:54:15.304Z,100367.13
2023-03-17T11:56:54.391Z,100309.50
2023-03-17T11:59:28.961Z,100355.63
2023-03-17T12:02:38.990Z,100362.78
2023-03-17T12:05:15.469Z,100355.44
2023-03-17T12:07:55.566Z,100361.53
2023-03-17T12:10:59.958Z,100307.81
2023-03-17T12:17:20.056Z,100317.34
2023-03-17T13:01:22.906Z,100259.59
2023-03-17T13:08:46.869Z,100331.47
2023-03-17T13:27:33.683Z,100283.41
2023-03-17T13:30:26.246Z,100267.97
2023-03-17T13:33:26.300Z,100246.13
2023-03-17T13:36:43.450Z,100321.34
2023-03-17T13:46:36.526Z,100286.28
2023-03-17T14:04:40.188Z,100240.06
2023-03-17T14:16:39.872Z,100289.03
2023-03-17T14:41:24.223Z,100258.47
2023-03-17T14:53:01.116Z,100291.25
2023-03-17T15:03:47.923Z,100285.44
2023-03-17T15:06:40.458Z,100207.38
2023-03-17T15:18:02.844Z,100251.03
2023-03-17T15:20:40.342Z,100220.16
2023-03-17T15:24:01.988Z,100276.56
2023-03-17T15:27:28.980Z,100269.50
2023-03-17T16:31:35.164Z,100191.28
2023-03-17T16:50:38.664Z,100254.16
2023-03-17T17:20:37.072Z,100320.47
2023-03-17T17:38:02.930Z,100294.19
2023-03-17T17:40:43.775Z,100315.53
2023-03-17T17:50:30.965Z,100264.09
2023-03-17T17:53:11.081Z,100344.25
2023-03-17T17:56:19.741Z,100299.56
2023-03-17T17:59:13.976Z,100322.69
2023-03-17T18:02:38.365Z,100290.84
2023-03-17T18:05:06.259Z,100303.34
2023-03-17T18:07:48.655Z,100321.56
2023-03-17T18:10:29.370Z,100286.94
2023-03-17T18:13:05.219Z,100283.13
2023-03-17T18:15:36.896Z,100274.66
2023-03-17T18:18:10.052Z,100316.19
2023-03-17T18:20:52.664Z,100340.25
2023-03-17T18:23:51.661Z,100334.59
2023-03-17T18:26:20.349Z,100337.31
2023-03-17T18:28:50.130Z,100339.31
2023-03-17T18:31:23.893Z,100313.72
2023-03-17T18:33:59.998Z,100327.50
2023-03-17T18:36:30.209Z,100317.47
2023-03-17T18:38:59.487Z,100303.84
2023-03-17T18:41:27.295Z,100330.53
2023-03-17T18:44:16.408Z,100336.81
2023-03-17T18:46:45.357Z,100310.72
2023-03-17T18:49:17.653Z,100280.97
2023-03-17T18:51:46.700Z,100374.94
2023-03-17T18:55:09.061Z,100325.66
2023-03-17T18:57:13.511Z,100294.34
2023-03-17T18:59:45.491Z,100321.84
2023-03-17T19:02:37.622Z,100311.88
2023-03-17T19:05:08.784Z,100311.28
2023-03-17T19:07:47.537Z,100325.03
2023-03-17T19:10:22.839Z,100288.53
2023-03-17T19:12:55.514Z,100301.53
2023-03-17T19:15:36.914Z,100334.97
2023-03-17T19:18:29.798Z,100316.50
2023-03-17T19:21:16.818Z,100308.94
2023-03-17T19:23:48.551Z,100313.50
2023-03-17T19:26:24.362Z,100312.00
2023-03-17T19:29:07.001Z,100312.00
2023-03-17T19:32:51.784Z,100334.38
2023-03-17T19:35:23.289Z,100314.19
2023-03-17T19:38:01.314Z,100303.28
2023-03-17T19:40:41.251Z,100355.22
2023-03-17T19:43:22.609Z,100331.53
2023-03-17T19:46:06.895Z,100337.47
2023-03-17T19:48:33.615Z,100338.38
2023-03-17T19:51:01.524Z,100349.34
2023-03-17T19:53:30.511Z,100325.66
2023-03-17T19:55:58.309Z,100348.91
2023-03-17T19:58:25.477Z,100323.47
2023-03-17T20:00:52.205Z,100299.72
2023-03-17T20:03:19.157Z,100366.34
2023-03-17T20:05:48.463Z,100387.00
2023-03-17T20:08:17.547Z,100340.22
2023-03-17T20:10:45.053Z,100312.13
2023-03-17T20:13:15.692Z,100356.50
2023-03-17T20:15:42.555Z,100317.22
2023-03-17T20:18:09.385Z,100349.69
2023-03-17T20:20:38.751Z,100344.34
2023-03-17T20:23:05.394Z,100364.94
2023-03-17T20:25:34.969Z,100383.69
2023-03-17T20:28:06.535Z,100382.09
2023-03-17T20:30:44.709Z,100407.78
2023-03-17T20:33:14.426Z,100407.69
2023-03-17T20:35:47.025Z,100348.03
2023-03-17T20:38:19.612Z,100378.75
2023-03-17T20:40:46.644Z,100347.28
2023-03-17T20:43:13.548Z,100380.81
2023-03-17T20:46:09.047Z,100409.75
2023-03-17T20:48:39.992Z,100353.56
2023-03-17T20:51:16.991Z,100345.94
2023-03-17T20:53:49.593Z,100407.53
2023-03-17T20:56:22.609Z,100362.31
2023-03-17T20:58:53.322Z,100370.69
2023-03-17T21:01:37.993Z,100391.25
2023-03-17T21:04:19.288Z,100331.44
2023-03-17T21:06:53.733Z,100336.53
2023-03-17T21:09:23.033Z,100364.66
2023-03-17T21:12:01.346Z,100337.25
2023-03-17T21:14:34.705Z,100345.75
2023-03-17T21:17:04.430Z,100391.84
2023-03-17T21:19:36.662Z,100378.00
2023-03-17T21:22:24.601Z,100350.59
2023-03-17T21:25:30.801Z,100313.88
2023-03-17T21:34:37.324Z,100303.28
2023-03-17T21:38:13.724Z,100368.16
2023-03-17T21:41:25.229Z,100388.22
2023-03-17T21:46:39.215Z,100302.22
2023-03-17T21:49:07.818Z,100373.00
2023-03-17T21:52:22.145Z,100412.16
2023-03-17T21:58:07.253Z,100335.47
2023-03-17T22:00:59.007Z,100325.97
2023-03-17T22:03:55.808Z,100400.22
2023-03-17T22:06:32.930Z,100344.88
2023-03-17T22:09:28.251Z,100391.84
2023-03-17T22:12:52.992Z,100359.34
2023-03-17T22:15:48.234Z,100335.34
2023-03-17T22:18:46.597Z,100338.56
2023-03-17T22:21:28.906Z,100336.09
2023-03-17T22:27:02.704Z,100413.94
2023-03-17T22:29:49.873Z,100352.44
2023-03-17T22:32:20.520Z,100440.59
2023-03-17T22:35:34.307Z,100347.47
2023-03-17T22:41:51.217Z,100393.44
2023-03-17T22:48:03.332Z,100349.19
2023-03-17T22:50:43.916Z,100343.97
2023-03-17T22:53:22.637Z,100371.28
2023-03-17T22:55:52.489Z,100343.16
2023-03-17T22:58:20.016Z,100345.84
2023-03-17T23:00:48.491Z,100354.41
2023-03-17T23:03:18.022Z,100398.78
2023-03-17T23:05:49.894Z,100402.16
2023-03-17T23:08:18.908Z,100445.75
2023-03-17T23:10:47.766Z,100436.25
2023-03-17T23:13:14.815Z,100439.75
2023-03-17T23:15:41.697Z,100434.72
2023-03-17T23:18:09.363Z,100398.88
2023-03-17T23:20:37.622Z,100423.69
2023-03-17T23:23:04.935Z,100413.56
2023-03-17T23:25:31.997Z,100405.97
2023-03-17T23:27:58.926Z,100444.50
2023-03-17T23:30:26.059Z,100407.88
2023-03-17T23:32:53.877Z,100429.38
2023-03-17T23:35:20.540Z,100421.81
2023-03-17T23:37:47.381Z,100428.72
2023-03-17T23:40:17.162Z,100438.28
2023-03-17T23:42:45.212Z,100441.03
2023-03-17T23:45:12.214Z,100413.84
2023-03-17T23:47:38.970Z,100422.50
2023-03-17T23:50:06.069Z,100407.16
2023-03-17T23:52:33.187Z,100436.28
2023-03-17T23:55:01.205Z,100404.66
2023-03-17T23:57:27.761Z,100386.75
2023-03-17T23:59:54.281Z,100415.03
